Погода Акашочитланна неделю

Идальго, Мексика

23 - 29 февраля
  • 23февраля
    Сегодня
    +10°
    +27°
    Небольшая облачность
    ВремяПогодаТемператураВлажностьДавлениеВетер, м/сВероятность осадков
    00:00Ясно и безоблачно+14°C49 %594 мм1.1 м/с2 %
    03:00Ясно и безоблачно+12°C53 %592 мм1.7 м/с2 %
    06:00Ясно и безоблачно+9°C54 %591 мм1.8 м/с2 %
    09:00Ясно и безоблачно+16°C45 %597 мм0.4 м/с2 %
    12:00Ясно и безоблачно+26°C40 %601 мм1.6 м/с2 %
    15:00Небольшая облачность+25°C65 %600 мм3.7 м/с2 %
    18:00Пасмурно, небольшой дождь+20°C93 %598 мм3.2 м/с12 %
    21:00Пасмурно, ливень+16°C99 %598 мм2.2 м/с36 %
  • 24февраля
    Суббота
    +6°
    +25°
    Облачно с прояснениями
    ВремяПогодаТемператураВлажностьДавлениеВетер, м/сВероятность осадков
    00:00Пасмурно, ливень+14°C99 %598 мм1.3 м/с31 %
    03:00Пасмурно, ливень+13°C100 %597 мм1.4 м/с26 %
    06:00Пасмурно, ливень+12°C100 %597 мм1.2 м/с26 %
    09:00Облачно с прояснениями+14°C89 %599 мм1.1 м/с18 %
    12:00Облачно с прояснениями+24°C82 %603 мм1.7 м/с22 %
    15:00Облачно с прояснениями+23°C82 %602 мм3.0 м/с27 %
    18:00Пасмурно, небольшой дождь+19°C94 %600 мм2.5 м/с34 %
    21:00Пасмурно, сплошная облачность+14°C98 %599 мм1.2 м/с30 %
  • 25февраля
    Воскресенье
    +8°
    +28°
    Ясно и безоблачно
    ВремяПогодаТемператураВлажностьДавлениеВетер, м/сВероятность осадков
    00:00Облачно с прояснениями+11°C98 %597 мм1.0 м/с17 %
    03:00Облачно с прояснениями+10°C97 %595 мм1.6 м/с13 %
    06:00Ясно и безоблачно+9°C74 %594 мм1.7 м/с5 %
    09:00Практически безоблачно+17°C54 %598 мм0.8 м/с2 %
    12:00Ясно и безоблачно+27°C53 %603 мм1.9 м/с4 %
    15:00Ясно и безоблачно+28°C51 %602 мм3.5 м/с3 %
    18:00Ясно и безоблачно+23°C79 %600 мм2.2 м/с2 %
    21:00Ясно и безоблачно+17°C53 %598 мм0.9 м/с2 %
  • 26февраля
    Понедельник
    +7°
    +29°
    Ясно и безоблачно
    ВремяПогодаТемператураВлажностьДавлениеВетер, м/сВероятность осадков
    00:00Ясно и безоблачно+13°C44 %596 мм1.1 м/с2 %
    03:00Ясно и безоблачно+12°C51 %595 мм1.3 м/с2 %
    06:00Ясно и безоблачно+11°C54 %594 мм1.3 м/с2 %
    09:00Ясно и безоблачно+17°C54 %598 мм0.8 м/с2 %
    12:00Ясно и безоблачно+27°C25 %602 мм2.3 м/с2 %
    15:00Ясно и безоблачно+29°C38 %601 мм4.2 м/с2 %
    18:00Ясно и безоблачно+24°C60 %599 мм3.0 м/с2 %
    21:00Ясно и безоблачно+16°C36 %597 мм1.2 м/с2 %
  • 27февраля
    Вторник
    +9°
    +31°
    Ясно и безоблачно
    ВремяПогодаТемператураВлажностьДавлениеВетер, м/сВероятность осадков
    00:00Ясно и безоблачно+14°C46 %594 мм1.6 м/с2 %
    03:00Ясно и безоблачно+12°C44 %592 мм2.4 м/с2 %
    06:00Ясно и безоблачно+11°C47 %592 мм2.5 м/с2 %
    09:00Ясно и безоблачно+19°C49 %597 мм1.6 м/с2 %
    12:00Ясно и безоблачно+29°C26 %601 мм0.8 м/с2 %
    15:00Ясно и безоблачно+30°C28 %600 мм2.4 м/с4 %
    18:00Ясно и безоблачно+26°C62 %598 мм2.1 м/с2 %
    21:00Практически безоблачно+19°C57 %595 мм1.6 м/с2 %
Мы используем cookies
Соглашаюсь